Time;durP1;ratioP1;P1;durP2;ratioP2;P2;SDS_P1;SDS_P2;PMS_P1;PMS_P2;Temp;Humidity;BMP_temperature;BMP_pressure;BME280_temperature;BME280_humidity;BME280_pressure;Samples;Min_cycle;Max_cycle;Signal;HPM_P1;HPM_P2
2022/12/09 00:01:14;;;;;;;89.70;35.45;;;;;;;;;;5068339;28;20049;-41
2022/12/09 00:03:40;;;;;;;94.00;33.75;;;;;;;;;;5065995;28;20557;-43
2022/12/09 00:06:13;;;;;;;114.25;37.13;;;;;;;;;;5067477;28;20064;-42
2022/12/09 00:08:40;;;;;;;94.75;36.47;;;;;;;;;;5067986;28;20530;-42
2022/12/09 00:11:06;;;;;;;107.97;36.50;;;;;;;;;;5063540;28;20135;-41
2022/12/09 00:13:34;;;;;;;99.18;37.83;;;;;;;;;;5068074;28;20068;-41
2022/12/09 00:16:09;;;;;;;120.15;39.63;;;;;;;;;;5068565;28;20044;-42
2022/12/09 00:18:36;;;;;;;98.20;39.25;;;;;;;;;;5067679;28;20055;-41
2022/12/09 00:21:18;;;;;;;103.30;38.67;;;;;;;;;;5067529;28;20492;-41
2022/12/09 00:23:45;;;;;;;88.28;35.85;;;;;;;;;;5066013;28;20046;-41
2022/12/09 00:26:13;;;;;;;92.97;35.80;;;;;;;;;;5067364;28;20045;-41
2022/12/09 00:28:40;;;;;;;112.72;36.75;;;;;;;;;;5067889;28;20953;-41
2022/12/09 00:31:06;;;;;;;87.70;33.08;;;;;;;;;;5068345;28;20090;-41
2022/12/09 00:33:33;;;;;;;95.13;35.85;;;;;;;;;;5068029;28;20043;-41
2022/12/09 00:36:04;;;;;;;124.20;40.42;;;;;;;;;;5066014;28;20127;-41
2022/12/09 00:38:31;;;;;;;100.72;36.25;;;;;;;;;;5067996;28;20117;-42
2022/12/09 00:40:57;;;;;;;108.88;39.08;;;;;;;;;;5065726;28;20400;-41
2022/12/09 00:43:24;;;;;;;105.07;39.20;;;;;;;;;;5068793;28;20071;-42
2022/12/09 00:45:50;;;;;;;97.32;37.20;;;;;;;;;;5066686;28;20497;-41
2022/12/09 00:48:17;;;;;;;95.93;37.65;;;;;;;;;;5066119;28;20133;-42
2022/12/09 00:50:44;;;;;;;97.50;37.15;;;;;;;;;;5065985;28;20033;-42
2022/12/09 00:53:11;;;;;;;91.30;35.45;;;;;;;;;;5070249;28;20040;-42
2022/12/09 00:55:37;;;;;;;92.28;36.47;;;;;;;;;;5071265;28;20047;-42
2022/12/09 00:58:04;;;;;;;102.95;35.22;;;;;;;;;;5070387;28;20072;-42
2022/12/09 01:00:31;;;;;;;96.97;34.78;;;;;;;;;;5053270;28;20454;-42
2022/12/09 01:02:58;;;;;;;95.68;35.70;;;;;;;;;;5071189;28;20504;-41
2022/12/09 01:05:24;;;;;;;99.20;34.33;;;;;;;;;;5070850;28;20041;-42
2022/12/09 01:07:51;;;;;;;95.15;34.60;;;;;;;;;;5069768;28;20098;-42
2022/12/09 01:10:18;;;;;;;108.28;36.05;;;;;;;;;;5071070;28;20040;-42
2022/12/09 01:12:44;;;;;;;93.32;34.38;;;;;;;;;;5070416;28;20401;-42
2022/12/09 01:15:11;;;;;;;96.30;35.75;;;;;;;;;;5071099;28;20037;-42
2022/12/09 01:17:38;;;;;;;92.00;34.88;;;;;;;;;;5070778;28;20067;-41
2022/12/09 01:20:07;;;;;;;105.35;35.97;;;;;;;;;;5070370;28;20055;-41
2022/12/09 01:22:34;;;;;;;88.40;32.85;;;;;;;;;;5071116;28;20504;-41
2022/12/09 01:25:01;;;;;;;103.20;36.00;;;;;;;;;;5071271;28;20493;-41
2022/12/09 01:27:31;;;;;;;90.15;33.40;;;;;;;;;;5069067;28;20113;-42
2022/12/09 01:29:57;;;;;;;93.55;34.78;;;;;;;;;;5069154;28;20370;-42
2022/12/09 01:32:24;;;;;;;106.85;36.15;;;;;;;;;;5068472;28;20045;-42
2022/12/09 01:34:51;;;;;;;108.20;35.25;;;;;;;;;;5069044;28;20072;-41
2022/12/09 01:37:18;;;;;;;87.13;34.92;;;;;;;;;;5070212;28;20052;-41
2022/12/09 01:39:45;;;;;;;98.93;37.42;;;;;;;;;;5069173;28;20059;-41
2022/12/09 01:42:19;;;;;;;92.57;33.72;;;;;;;;;;5068057;28;20049;-41
2022/12/09 01:45:04;;;;;;;93.63;34.38;;;;;;;;;;5069015;28;20048;-41
2022/12/09 01:47:31;;;;;;;127.60;37.22;;;;;;;;;;5068524;28;20041;-43
2022/12/09 01:49:58;;;;;;;96.28;34.30;;;;;;;;;;5070620;28;20071;-41
2022/12/09 01:52:24;;;;;;;89.63;32.72;;;;;;;;;;5071254;28;20514;-40
2022/12/09 01:54:52;;;;;;;97.00;35.35;;;;;;;;;;5067975;28;20040;-41
2022/12/09 01:57:19;;;;;;;88.93;34.75;;;;;;;;;;5068088;28;20052;-41
2022/12/09 01:59:46;;;;;;;83.80;30.35;;;;;;;;;;5068720;28;20068;-41
2022/12/09 02:02:16;;;;;;;94.45;31.98;;;;;;;;;;5068292;28;20044;-41
2022/12/09 02:04:46;;;;;;;74.07;29.60;;;;;;;;;;5067957;28;20584;-41
2022/12/09 02:07:14;;;;;;;85.72;32.28;;;;;;;;;;5069456;28;20505;-41
2022/12/09 02:09:41;;;;;;;75.45;30.45;;;;;;;;;;5068215;28;20086;-41
2022/12/09 02:12:13;;;;;;;80.30;31.42;;;;;;;;;;5067899;28;20101;-41
2022/12/09 02:14:43;;;;;;;101.60;33.55;;;;;;;;;;5068145;28;20404;-41
2022/12/09 02:17:26;;;;;;;87.65;31.65;;;;;;;;;;5068308;28;20055;-43
2022/12/09 02:20:00;;;;;;;94.65;31.13;;;;;;;;;;5065492;28;20076;-41
2022/12/09 02:22:39;;;;;;;77.93;30.63;;;;;;;;;;5069141;28;20067;-41
2022/12/09 02:25:11;;;;;;;87.60;31.25;;;;;;;;;;5068566;28;20286;-41
2022/12/09 02:27:43;;;;;;;86.68;31.55;;;;;;;;;;5067718;28;20044;-42
2022/12/09 02:30:18;;;;;;;99.65;33.33;;;;;;;;;;5067762;28;20044;-41
2022/12/09 02:32:50;;;;;;;86.82;33.83;;;;;;;;;;5068149;28;20594;-42
2022/12/09 02:35:23;;;;;;;75.68;29.63;;;;;;;;;;5066943;28;20036;-41
2022/12/09 02:38:10;;;;;;;105.13;33.78;;;;;;;;;;5067882;28;20102;-41
2022/12/09 02:40:36;;;;;;;93.63;35.72;;;;;;;;;;5067761;28;20049;-41
2022/12/09 02:43:04;;;;;;;90.82;33.22;;;;;;;;;;5069369;28;20032;-45
2022/12/09 02:45:32;;;;;;;88.90;32.17;;;;;;;;;;5067569;28;20158;-42
2022/12/09 02:48:01;;;;;;;85.25;31.95;;;;;;;;;;5067682;28;20122;-42
2022/12/09 02:50:30;;;;;;;94.00;32.40;;;;;;;;;;5068850;28;20036;-41
2022/12/09 02:52:59;;;;;;;84.68;33.35;;;;;;;;;;5067391;28;20033;-42
2022/12/09 02:55:28;;;;;;;78.35;30.10;;;;;;;;;;5068243;28;20044;-41
2022/12/09 02:57:58;;;;;;;87.07;29.42;;;;;;;;;;5069179;28;20048;-42
2022/12/09 03:00:24;;;;;;;74.05;29.45;;;;;;;;;;5067265;28;20048;-43
2022/12/09 03:02:53;;;;;;;82.55;31.15;;;;;;;;;;5067258;28;20135;-42
2022/12/09 03:05:23;;;;;;;92.13;33.67;;;;;;;;;;5068676;28;20107;-41
2022/12/09 03:07:59;;;;;;;104.25;35.45;;;;;;;;;;5068799;28;20060;-42
2022/12/09 03:10:35;;;;;;;92.57;32.00;;;;;;;;;;5069036;28;20110;-41
2022/12/09 03:13:13;;;;;;;75.72;29.48;;;;;;;;;;5068934;28;20048;-42
2022/12/09 03:15:43;;;;;;;102.75;32.42;;;;;;;;;;5068043;28;20491;-42
2022/12/09 03:18:10;;;;;;;85.20;30.73;;;;;;;;;;5062323;28;20041;-42
2022/12/09 03:20:38;;;;;;;76.15;27.92;;;;;;;;;;5068460;28;20045;-42
2022/12/09 03:23:06;;;;;;;111.60;34.08;;;;;;;;;;5068350;28;20070;-41
2022/12/09 03:25:37;;;;;;;84.80;30.95;;;;;;;;;;5069331;28;20044;-41
2022/12/09 03:28:07;;;;;;;96.30;32.55;;;;;;;;;;5068661;28;20075;-41
2022/12/09 03:30:35;;;;;;;85.00;31.30;;;;;;;;;;5067960;28;20508;-42
2022/12/09 03:33:03;;;;;;;84.78;32.97;;;;;;;;;;5068254;28;20051;-42
2022/12/09 03:35:35;;;;;;;86.10;30.48;;;;;;;;;;5068358;28;20033;-42
2022/12/09 03:38:04;;;;;;;95.28;32.67;;;;;;;;;;5068523;28;20497;-41
2022/12/09 03:40:31;;;;;;;89.85;32.53;;;;;;;;;;5065724;28;20037;-42
2022/12/09 03:43:04;;;;;;;95.55;34.58;;;;;;;;;;5068024;28;20052;-41
2022/12/09 03:45:31;;;;;;;80.90;32.08;;;;;;;;;;5068068;28;20036;-41
2022/12/09 03:47:58;;;;;;;94.07;32.40;;;;;;;;;;5068188;28;20102;-41
2022/12/09 03:50:27;;;;;;;90.13;33.47;;;;;;;;;;5068693;28;20459;-42
2022/12/09 03:53:11;;;;;;;96.60;34.17;;;;;;;;;;5067098;28;20058;-42
2022/12/09 03:55:38;;;;;;;104.43;35.53;;;;;;;;;;5067536;28;20045;-42
2022/12/09 03:58:05;;;;;;;99.95;32.08;;;;;;;;;;5065965;28;20480;-41
2022/12/09 04:00:34;;;;;;;92.72;32.63;;;;;;;;;;5066673;28;20075;-41
2022/12/09 04:03:01;;;;;;;104.15;33.75;;;;;;;;;;5067909;28;20056;-41
2022/12/09 04:05:28;;;;;;;72.90;28.20;;;;;;;;;;5068610;28;20041;-46
2022/12/09 04:07:54;;;;;;;88.70;30.23;;;;;;;;;;5067159;28;20068;-42
2022/12/09 04:10:21;;;;;;;78.57;28.38;;;;;;;;;;5068949;28;20055;-41
2022/12/09 04:12:48;;;;;;;84.68;31.90;;;;;;;;;;5067372;28;20044;-42
2022/12/09 04:15:14;;;;;;;86.80;32.33;;;;;;;;;;5067929;28;20045;-42
2022/12/09 04:17:41;;;;;;;100.32;32.58;;;;;;;;;;5067617;28;20119;-42
2022/12/09 04:20:08;;;;;;;80.00;29.35;;;;;;;;;;5065374;28;20489;-41
2022/12/09 04:22:36;;;;;;;81.07;30.65;;;;;;;;;;5068623;28;20076;-41
2022/12/09 04:25:03;;;;;;;89.97;29.95;;;;;;;;;;5068263;28;20515;-46
2022/12/09 04:27:30;;;;;;;80.03;31.17;;;;;;;;;;5070293;28;20404;-42
2022/12/09 04:29:56;;;;;;;77.90;29.40;;;;;;;;;;5071537;28;20048;-41
2022/12/09 04:32:23;;;;;;;79.07;29.42;;;;;;;;;;5071594;28;20128;-41
2022/12/09 04:34:49;;;;;;;84.47;28.40;;;;;;;;;;5071747;28;20040;-41
2022/12/09 04:37:17;;;;;;;90.97;31.17;;;;;;;;;;5071044;28;20110;-41
2022/12/09 04:39:44;;;;;;;87.15;33.70;;;;;;;;;;5071385;28;20032;-40
2022/12/09 04:42:10;;;;;;;81.97;30.77;;;;;;;;;;5071079;28;20105;-40
2022/12/09 04:44:37;;;;;;;82.03;29.63;;;;;;;;;;5071602;28;20045;-40
2022/12/09 04:47:04;;;;;;;91.55;33.50;;;;;;;;;;5071314;28;20454;-40
2022/12/09 04:49:30;;;;;;;84.03;30.50;;;;;;;;;;5072631;28;20484;-41
2022/12/09 04:51:57;;;;;;;93.90;34.55;;;;;;;;;;5071161;28;20507;-40
2022/12/09 04:54:24;;;;;;;81.45;31.65;;;;;;;;;;5071099;28;20044;-40
2022/12/09 04:56:50;;;;;;;94.47;33.38;;;;;;;;;;5070778;28;20404;-41
2022/12/09 04:59:17;;;;;;;81.97;31.63;;;;;;;;;;5071255;28;20047;-41
2022/12/09 05:01:44;;;;;;;99.63;34.05;;;;;;;;;;5071420;28;20044;-41
2022/12/09 05:04:11;;;;;;;84.47;30.45;;;;;;;;;;5071883;28;20049;-41
2022/12/09 05:06:37;;;;;;;78.63;30.20;;;;;;;;;;5070649;28;20063;-41
2022/12/09 05:09:08;;;;;;;96.38;32.17;;;;;;;;;;5070930;28;20539;-40
2022/12/09 05:11:35;;;;;;;88.85;33.92;;;;;;;;;;5070610;28;20044;-41
2022/12/09 05:14:02;;;;;;;102.80;32.70;;;;;;;;;;5070547;28;20079;-40
2022/12/09 05:16:29;;;;;;;83.38;31.63;;;;;;;;;;5072170;28;20041;-40
2022/12/09 05:18:58;;;;;;;92.53;35.33;;;;;;;;;;5068749;28;20467;-40
2022/12/09 05:21:24;;;;;;;99.35;36.65;;;;;;;;;;5070436;28;20588;-40
2022/12/09 05:23:51;;;;;;;99.32;36.38;;;;;;;;;;5070568;28;20037;-41
2022/12/09 05:26:19;;;;;;;102.55;36.92;;;;;;;;;;5070249;28;20048;-41
2022/12/09 05:28:46;;;;;;;109.32;37.80;;;;;;;;;;5070862;28;20094;-41
2022/12/09 05:31:15;;;;;;;88.22;33.55;;;;;;;;;;5071597;28;20106;-41
2022/12/09 05:33:43;;;;;;;100.80;36.17;;;;;;;;;;5070384;28;20150;-41
2022/12/09 05:36:11;;;;;;;98.20;37.35;;;;;;;;;;5070731;28;20524;-40
2022/12/09 05:38:38;;;;;;;96.47;36.92;;;;;;;;;;5070324;28;20094;-41
2022/12/09 05:41:05;;;;;;;96.72;36.17;;;;;;;;;;5070129;28;20041;-41
2022/12/09 05:43:32;;;;;;;90.70;35.22;;;;;;;;;;5071511;28;20033;-42
2022/12/09 05:46:03;;;;;;;89.50;32.40;;;;;;;;;;5070155;28;20047;-42
2022/12/09 05:48:30;;;;;;;107.57;36.42;;;;;;;;;;5066709;28;20102;-41
2022/12/09 05:51:01;;;;;;;91.75;33.13;;;;;;;;;;5070234;28;20147;-40
2022/12/09 05:53:28;;;;;;;84.68;30.30;;;;;;;;;;5070514;28;20040;-40
2022/12/09 05:55:55;;;;;;;91.20;32.53;;;;;;;;;;5069408;28;20404;-41
2022/12/09 05:58:22;;;;;;;84.80;33.63;;;;;;;;;;5070968;28;20054;-41
2022/12/09 06:00:49;;;;;;;86.10;30.67;;;;;;;;;;5069969;28;20036;-41
2022/12/09 06:03:16;;;;;;;99.00;33.35;;;;;;;;;;5069922;28;20037;-41
2022/12/09 06:05:43;;;;;;;95.32;34.92;;;;;;;;;;5068617;28;20041;-42
2022/12/09 06:08:10;;;;;;;102.07;34.08;;;;;;;;;;5069567;28;20041;-41
2022/12/09 06:10:38;;;;;;;103.40;34.45;;;;;;;;;;5069726;28;20425;-41
2022/12/09 06:13:06;;;;;;;103.65;35.28;;;;;;;;;;5070071;28;20059;-42
2022/12/09 06:15:33;;;;;;;93.40;32.88;;;;;;;;;;5070044;28;20064;-41
2022/12/09 06:18:00;;;;;;;108.57;37.40;;;;;;;;;;5064204;28;20152;-41
2022/12/09 06:20:27;;;;;;;102.38;35.70;;;;;;;;;;5066547;28;20048;-42
2022/12/09 06:22:54;;;;;;;113.65;36.92;;;;;;;;;;5068256;28;20110;-41
2022/12/09 06:25:20;;;;;;;108.22;36.75;;;;;;;;;;5070256;28;20048;-41
2022/12/09 06:27:48;;;;;;;87.82;33.55;;;;;;;;;;5068680;28;20052;-42
2022/12/09 06:30:14;;;;;;;105.45;33.90;;;;;;;;;;5069006;28;20047;-41
2022/12/09 06:32:41;;;;;;;107.97;33.65;;;;;;;;;;5069195;28;20044;-42
2022/12/09 06:35:08;;;;;;;107.28;37.35;;;;;;;;;;5069449;28;20036;-41
2022/12/09 06:37:36;;;;;;;100.70;35.03;;;;;;;;;;5070498;28;20147;-41
2022/12/09 06:40:02;;;;;;;116.15;39.38;;;;;;;;;;5069394;28;20048;-41
2022/12/09 06:42:29;;;;;;;103.50;39.13;;;;;;;;;;5069460;28;20051;-40
2022/12/09 06:44:56;;;;;;;103.93;35.38;;;;;;;;;;5065135;28;20116;-40
2022/12/09 06:47:23;;;;;;;106.28;37.40;;;;;;;;;;5068691;28;20035;-41
2022/12/09 06:49:50;;;;;;;122.40;38.58;;;;;;;;;;5068400;28;20624;-40
2022/12/09 06:52:17;;;;;;;110.20;38.42;;;;;;;;;;5069302;28;20049;-40
2022/12/09 06:54:44;;;;;;;99.03;35.92;;;;;;;;;;5068494;28;20077;-41
2022/12/09 06:57:11;;;;;;;94.40;37.55;;;;;;;;;;5068480;28;20179;-40
2022/12/09 06:59:37;;;;;;;102.30;38.72;;;;;;;;;;5067854;28;20493;-40
2022/12/09 07:02:04;;;;;;;120.38;40.88;;;;;;;;;;5068177;28;20044;-41
2022/12/09 07:04:31;;;;;;;115.78;43.38;;;;;;;;;;5069253;28;20041;-40
2022/12/09 07:06:57;;;;;;;117.45;42.45;;;;;;;;;;5068111;28;20055;-40
2022/12/09 07:09:25;;;;;;;129.15;45.80;;;;;;;;;;5068394;28;20045;-42
2022/12/09 07:11:52;;;;;;;129.15;45.35;;;;;;;;;;5068265;28;20064;-41
2022/12/09 07:14:19;;;;;;;114.03;42.67;;;;;;;;;;5067884;28;20037;-41
2022/12/09 07:16:45;;;;;;;117.82;41.90;;;;;;;;;;5068572;28;20040;-40
2022/12/09 07:19:17;;;;;;;107.45;41.08;;;;;;;;;;5067832;28;20135;-40
2022/12/09 07:21:44;;;;;;;106.90;38.08;;;;;;;;;;5065441;28;20044;-41
2022/12/09 07:24:11;;;;;;;105.45;38.28;;;;;;;;;;5068030;28;20059;-41
2022/12/09 07:26:38;;;;;;;110.88;39.47;;;;;;;;;;5068549;28;20036;-40
2022/12/09 07:29:05;;;;;;;105.82;37.90;;;;;;;;;;5068639;28;20121;-40
2022/12/09 07:31:33;;;;;;;98.53;37.08;;;;;;;;;;5069465;28;20049;-41
2022/12/09 07:34:00;;;;;;;89.80;36.00;;;;;;;;;;5068414;28;20041;-41
2022/12/09 07:36:28;;;;;;;110.10;37.85;;;;;;;;;;5068011;28;20041;-41
2022/12/09 07:39:06;;;;;;;102.70;36.90;;;;;;;;;;5068579;28;20042;-41
2022/12/09 07:41:33;;;;;;;92.55;35.95;;;;;;;;;;5068659;28;20502;-41
2022/12/09 07:44:00;;;;;;;103.35;36.13;;;;;;;;;;5068132;28;20033;-40
2022/12/09 07:46:26;;;;;;;85.45;35.20;;;;;;;;;;5069380;28;20086;-41
2022/12/09 07:48:54;;;;;;;92.93;38.05;;;;;;;;;;5067145;28;20083;-41
2022/12/09 07:51:23;;;;;;;105.07;38.17;;;;;;;;;;5066535;28;20416;-42
2022/12/09 07:53:50;;;;;;;90.97;36.75;;;;;;;;;;5068281;28;20131;-41
2022/12/09 07:56:17;;;;;;;102.82;37.58;;;;;;;;;;5068176;28;20075;-40
2022/12/09 07:58:46;;;;;;;104.88;35.90;;;;;;;;;;5068153;28;20037;-40
2022/12/09 08:01:17;;;;;;;95.88;37.00;;;;;;;;;;5069135;28;20040;-42
2022/12/09 08:03:45;;;;;;;86.05;33.88;;;;;;;;;;5072466;28;20051;-41
2022/12/09 08:06:16;;;;;;;86.80;34.50;;;;;;;;;;5071629;28;20512;-41
2022/12/09 08:08:44;;;;;;;83.00;32.63;;;;;;;;;;5072236;28;20086;-41
2022/12/09 08:11:12;;;;;;;90.85;34.00;;;;;;;;;;5070985;28;20040;-41
2022/12/09 08:13:40;;;;;;;124.88;40.10;;;;;;;;;;5072754;28;20141;-42
2022/12/09 08:16:09;;;;;;;91.32;32.60;;;;;;;;;;5072360;28;20044;-41
2022/12/09 08:18:36;;;;;;;95.68;34.65;;;;;;;;;;5070272;28;20040;-41
2022/12/09 08:21:04;;;;;;;91.43;34.65;;;;;;;;;;5071332;28;20052;-40
2022/12/09 08:23:30;;;;;;;120.50;37.53;;;;;;;;;;5071669;28;20045;-41
2022/12/09 08:25:57;;;;;;;110.05;36.05;;;;;;;;;;5071298;28;20090;-42
2022/12/09 08:28:24;;;;;;;97.55;35.55;;;;;;;;;;5072760;28;20037;-42
2022/12/09 08:30:51;;;;;;;83.53;34.38;;;;;;;;;;5071997;28;20051;-42
2022/12/09 08:33:19;;;;;;;96.20;36.65;;;;;;;;;;5071617;28;20051;-41
2022/12/09 08:35:46;;;;;;;101.35;37.38;;;;;;;;;;5071337;28;20075;-41
2022/12/09 08:38:13;;;;;;;94.32;36.65;;;;;;;;;;5071919;28;20452;-42
2022/12/09 08:40:39;;;;;;;87.70;36.33;;;;;;;;;;5071950;28;20040;-41
2022/12/09 08:43:10;;;;;;;85.70;33.83;;;;;;;;;;5071657;28;20041;-42
2022/12/09 08:45:38;;;;;;;91.95;36.15;;;;;;;;;;5071294;28;20040;-40
2022/12/09 08:48:05;;;;;;;108.32;36.63;;;;;;;;;;5071547;28;20404;-41
2022/12/09 08:50:32;;;;;;;98.30;37.55;;;;;;;;;;5071356;28;20072;-42
2022/12/09 08:52:59;;;;;;;98.97;37.75;;;;;;;;;;5071416;28;20072;-42
2022/12/09 08:55:26;;;;;;;101.07;38.47;;;;;;;;;;5071954;28;20051;-40
2022/12/09 08:57:53;;;;;;;97.43;39.25;;;;;;;;;;5071624;28;20041;-42
2022/12/09 09:00:20;;;;;;;105.68;38.95;;;;;;;;;;5071060;28;20049;-41
2022/12/09 09:02:47;;;;;;;94.25;39.08;;;;;;;;;;5070440;28;20405;-42
2022/12/09 09:05:13;;;;;;;91.30;37.33;;;;;;;;;;5071195;28;20406;-41
2022/12/09 09:07:41;;;;;;;95.28;37.70;;;;;;;;;;5071220;28;20476;-41
2022/12/09 09:10:08;;;;;;;135.57;42.63;;;;;;;;;;5071235;28;20040;-41
2022/12/09 09:12:35;;;;;;;94.13;39.05;;;;;;;;;;5066205;28;20052;-42
2022/12/09 09:15:09;;;;;;;91.55;40.03;;;;;;;;;;5071101;28;20064;-41
2022/12/09 09:17:36;;;;;;;100.80;40.17;;;;;;;;;;5070204;28;20478;-41
2022/12/09 09:20:03;;;;;;;118.32;42.17;;;;;;;;;;5069987;28;20059;-41
2022/12/09 09:22:30;;;;;;;90.35;39.10;;;;;;;;;;5072440;28;20165;-42
2022/12/09 09:24:57;;;;;;;90.32;37.58;;;;;;;;;;5070314;28;20127;-41
2022/12/09 09:27:24;;;;;;;85.78;37.47;;;;;;;;;;5070513;28;20123;-41
2022/12/09 09:29:51;;;;;;;111.80;40.90;;;;;;;;;;5070742;28;20064;-41
2022/12/09 09:32:17;;;;;;;111.05;42.72;;;;;;;;;;5070638;28;20043;-41
2022/12/09 09:34:47;;;;;;;93.25;38.88;;;;;;;;;;5069900;28;20131;-41
2022/12/09 09:37:14;;;;;;;98.82;40.03;;;;;;;;;;5070774;28;20048;-41
2022/12/09 09:39:41;;;;;;;104.60;41.50;;;;;;;;;;5070418;28;20056;-41
2022/12/09 09:42:13;;;;;;;96.30;38.90;;;;;;;;;;5070243;28;20044;-41
2022/12/09 09:44:47;;;;;;;98.55;41.75;;;;;;;;;;5070468;28;20123;-41
2022/12/09 09:47:18;;;;;;;92.50;40.67;;;;;;;;;;5070668;28;20043;-41
2022/12/09 09:49:48;;;;;;;99.47;41.53;;;;;;;;;;5067563;28;20050;-42
2022/12/09 09:52:16;;;;;;;105.07;41.05;;;;;;;;;;5070235;28;20049;-41
2022/12/09 09:54:43;;;;;;;97.70;40.55;;;;;;;;;;5070124;28;20131;-41
2022/12/09 09:57:10;;;;;;;95.18;41.30;;;;;;;;;;5069864;28;20036;-41
2022/12/09 09:59:49;;;;;;;104.28;40.33;;;;;;;;;;5069940;28;20072;-41
2022/12/09 10:02:17;;;;;;;94.53;38.90;;;;;;;;;;5067385;28;20049;-40
2022/12/09 10:04:45;;;;;;;96.05;39.22;;;;;;;;;;5070182;28;20052;-41
2022/12/09 10:07:17;;;;;;;96.85;37.88;;;;;;;;;;5070435;28;20109;-41
2022/12/09 10:09:48;;;;;;;103.47;41.70;;;;;;;;;;5066908;28;20048;-41
2022/12/09 10:12:17;;;;;;;100.57;41.20;;;;;;;;;;5069152;28;20118;-41
2022/12/09 10:15:03;;;;;;;108.78;45.38;;;;;;;;;;5070014;28;20071;-41
2022/12/09 10:17:34;;;;;;;104.88;41.47;;;;;;;;;;5067390;28;20044;-41
2022/12/09 10:20:04;;;;;;;95.35;42.03;;;;;;;;;;5069362;28;20712;-41
2022/12/09 10:22:41;;;;;;;114.18;44.90;;;;;;;;;;5070784;28;20040;-40
2022/12/09 10:25:19;;;;;;;114.13;45.00;;;;;;;;;;5068900;28;20075;-40
2022/12/09 10:27:52;;;;;;;106.43;42.05;;;;;;;;;;5069577;28;20036;-41
2022/12/09 10:30:20;;;;;;;96.68;40.78;;;;;;;;;;5069349;28;20404;-41
2022/12/09 10:32:47;;;;;;;88.32;38.20;;;;;;;;;;5069588;28;20033;-41
2022/12/09 10:35:16;;;;;;;118.97;45.28;;;;;;;;;;5069247;28;20068;-41
2022/12/09 10:37:45;;;;;;;97.13;40.92;;;;;;;;;;5069998;28;20040;-41
2022/12/09 10:40:15;;;;;;;99.72;40.17;;;;;;;;;;5069353;28;20565;-40
2022/12/09 10:45:32;;;;;;;84.10;36.90;;;;;;;;;;5066174;28;20047;-41
2022/12/09 10:48:29;;;;;;;90.15;38.90;;;;;;;;;;5065601;28;20097;-41
2022/12/09 10:51:01;;;;;;;90.75;38.00;;;;;;;;;;5069077;28;20447;-41
2022/12/09 10:53:29;;;;;;;109.72;41.13;;;;;;;;;;5068827;28;20055;-40
2022/12/09 10:55:57;;;;;;;98.53;40.38;;;;;;;;;;5069211;28;20408;-40
2022/12/09 10:58:26;;;;;;;96.47;40.55;;;;;;;;;;5067916;28;20047;-41
2022/12/09 11:01:00;;;;;;;90.40;37.63;;;;;;;;;;5068791;28;20045;-40
2022/12/09 11:03:30;;;;;;;96.40;41.88;;;;;;;;;;5068917;28;20048;-40
2022/12/09 11:05:59;;;;;;;99.13;39.75;;;;;;;;;;5068789;28;20056;-41
2022/12/09 11:08:26;;;;;;;89.63;39.88;;;;;;;;;;5068643;28;20048;-41
2022/12/09 11:10:53;;;;;;;106.22;41.95;;;;;;;;;;5067202;28;20142;-42
2022/12/09 11:13:26;;;;;;;89.43;39.45;;;;;;;;;;5069380;28;20090;-41
2022/12/09 11:15:58;;;;;;;;;;;;;;;;;;5067792;28;20041;-41
2022/12/09 11:18:28;;;;;;;81.97;35.22;;;;;;;;;;5065950;28;19955;-41
2022/12/09 11:20:56;;;;;;;85.55;37.38;;;;;;;;;;5068450;28;20044;-40
2022/12/09 11:23:23;;;;;;;96.88;40.22;;;;;;;;;;5068146;28;20503;-41
2022/12/09 11:25:53;;;;;;;107.68;41.78;;;;;;;;;;5065834;28;20492;-41
2022/12/09 11:28:26;;;;;;;100.93;43.15;;;;;;;;;;5068935;28;20041;-41
2022/12/09 11:30:53;;;;;;;84.75;36.55;;;;;;;;;;5068430;28;20049;-41
2022/12/09 11:33:46;;;;;;;84.70;39.05;;;;;;;;;;5066157;28;20045;-41
2022/12/09 11:36:39;;;;;;;95.20;41.00;;;;;;;;;;5067849;28;20066;-41
2022/12/09 11:39:16;;;;;;;88.25;38.80;;;;;;;;;;5063664;28;20068;-41
2022/12/09 11:44:41;;;;;;;84.60;38.42;;;;;;;;;;5068420;28;20067;-41
2022/12/09 11:47:10;;;;;;;106.88;44.25;;;;;;;;;;5068429;28;20043;-40
2022/12/09 11:49:56;;;;;;;111.88;42.63;;;;;;;;;;5069543;28;20040;-41
2022/12/09 11:52:25;;;;;;;101.22;41.08;;;;;;;;;;5068361;28;20136;-42
2022/12/09 11:55:10;;;;;;;91.05;39.78;;;;;;;;;;5065924;28;20068;-47
2022/12/09 11:57:43;;;;;;;104.15;41.78;;;;;;;;;;5067115;28;20044;-42
2022/12/09 12:00:33;;;;;;;93.50;42.28;;;;;;;;;;5065052;28;20572;-42
2022/12/09 12:03:03;;;;;;;91.10;40.20;;;;;;;;;;5058701;28;20102;-41
2022/12/09 12:05:31;;;;;;;88.63;41.22;;;;;;;;;;5068252;28;20120;-41
2022/12/09 12:08:12;;;;;;;120.30;45.05;;;;;;;;;;5067699;28;20049;-41
2022/12/09 12:10:44;;;;;;;91.45;40.40;;;;;;;;;;5069301;28;20563;-42
2022/12/09 12:13:11;;;;;;;106.90;42.60;;;;;;;;;;5067635;28;20051;-41
2022/12/09 12:16:00;;;;;;;89.75;40.97;;;;;;;;;;5068600;28;20487;-41
2022/12/09 12:18:29;;;;;;;125.88;46.88;;;;;;;;;;5023810;28;20056;-41
2022/12/09 12:21:02;;;;;;;107.18;45.42;;;;;;;;;;5025825;28;20053;-41
2022/12/09 12:23:28;;;;;;;107.40;43.63;;;;;;;;;;5025537;28;20103;-40
2022/12/09 12:26:01;;;;;;;109.10;44.70;;;;;;;;;;5024902;28;20056;-42
2022/12/09 12:28:30;;;;;;;106.88;43.38;;;;;;;;;;5026795;28;20049;-42
2022/12/09 12:31:05;;;;;;;111.15;45.35;;;;;;;;;;5017511;28;20042;-42
2022/12/09 12:33:40;;;;;;;100.95;42.85;;;;;;;;;;5025077;28;20518;-41
2022/12/09 12:36:35;;;;;;;102.97;43.30;;;;;;;;;;5023433;28;20054;-42
2022/12/09 12:39:07;;;;;;;99.05;43.17;;;;;;;;;;5018637;28;20495;-41
2022/12/09 12:41:43;;;;;;;102.13;43.50;;;;;;;;;;5024773;28;20129;-41
2022/12/09 12:47:22;;;;;;;97.05;41.42;;;;;;;;;;5026042;28;20139;-40
2022/12/09 12:49:56;;;;;;;109.10;45.78;;;;;;;;;;5029511;28;20053;-41
2022/12/09 12:52:32;;;;;;;103.50;43.42;;;;;;;;;;5029632;28;20148;-42
2022/12/09 12:55:18;;;;;;;104.90;42.30;;;;;;;;;;5041879;28;20052;-41
2022/12/09 12:58:08;;;;;;;92.88;43.15;;;;;;;;;;5071372;28;20597;-41
2022/12/09 13:00:40;;;;;;;105.28;43.88;;;;;;;;;;5067844;28;20042;-41
2022/12/09 13:03:27;;;;;;;92.90;42.50;;;;;;;;;;5071242;28;20044;-42
2022/12/09 13:05:55;;;;;;;112.47;41.20;;;;;;;;;;5028152;28;20156;-39
2022/12/09 13:08:39;;;;;;;98.22;40.17;;;;;;;;;;5028700;28;20061;-36
2022/12/09 13:11:10;;;;;;;110.05;42.92;;;;;;;;;;5027529;28;20049;-46
2022/12/09 13:13:50;;;;;;;96.72;42.47;;;;;;;;;;5029329;28;20080;-44
2022/12/09 13:16:28;;;;;;;96.78;38.50;;;;;;;;;;5029302;28;20652;-44
2022/12/09 13:19:00;;;;;;;89.93;40.85;;;;;;;;;;5027970;28;20041;-44
2022/12/09 13:21:26;;;;;;;101.85;41.30;;;;;;;;;;5027965;28;20049;-44
2022/12/09 13:24:00;;;;;;;112.75;42.67;;;;;;;;;;5027691;28;20283;-43
2022/12/09 13:26:26;;;;;;;114.68;41.95;;;;;;;;;;5027920;28;20547;-43
2022/12/09 13:28:58;;;;;;;111.38;42.25;;;;;;;;;;5028594;28;20604;-43
2022/12/09 13:31:27;;;;;;;98.43;41.63;;;;;;;;;;5029148;28;20632;-38
2022/12/09 13:33:54;;;;;;;95.30;41.70;;;;;;;;;;5027747;28;20527;-40
2022/12/09 13:36:21;;;;;;;94.43;39.63;;;;;;;;;;5028060;28;20061;-41
2022/12/09 13:38:48;;;;;;;94.20;43.47;;;;;;;;;;5027786;28;20120;-37
2022/12/09 13:41:29;;;;;;;104.28;44.45;;;;;;;;;;5026089;28;20055;-42
2022/12/09 13:44:03;;;;;;;106.07;42.97;;;;;;;;;;5064213;28;20076;-43
2022/12/09 13:46:31;;;;;;;119.38;48.42;;;;;;;;;;5070279;28;20055;-42
2022/12/09 13:49:07;;;;;;;124.82;48.97;;;;;;;;;;5069732;28;20148;-42
2022/12/09 13:51:42;;;;;;;122.82;50.03;;;;;;;;;;5067168;28;20048;-42
2022/12/09 13:54:12;;;;;;;101.35;45.42;;;;;;;;;;5069908;28;20037;-41
2022/12/09 13:56:39;;;;;;;101.70;45.58;;;;;;;;;;5069842;28;20115;-41
2022/12/09 13:59:25;;;;;;;129.98;51.22;;;;;;;;;;5069027;28;20056;-43
2022/12/09 14:02:11;;;;;;;142.80;53.75;;;;;;;;;;5069823;28;20055;-43
2022/12/09 14:05:04;;;;;;;147.20;58.15;;;;;;;;;;5070628;28;20044;-42
2022/12/09 14:07:30;;;;;;;136.00;58.47;;;;;;;;;;5067864;28;20070;-41
2022/12/09 14:09:57;;;;;;;153.98;60.88;;;;;;;;;;5069439;28;20049;-41
2022/12/09 14:12:24;;;;;;;133.27;57.15;;;;;;;;;;5070006;28;20048;-42
2022/12/09 14:14:52;;;;;;;131.35;55.00;;;;;;;;;;5069841;28;20064;-41
2022/12/09 14:17:24;;;;;;;158.75;62.08;;;;;;;;;;5069749;28;20037;-41
2022/12/09 14:19:59;;;;;;;175.98;69.18;;;;;;;;;;5069924;28;20056;-41
2022/12/09 14:22:29;;;;;;;232.15;91.70;;;;;;;;;;5068740;28;20067;-42
2022/12/09 14:25:18;;;;;;;188.57;75.00;;;;;;;;;;5069351;28;20041;-44
2022/12/09 14:28:23;;;;;;;133.32;60.97;;;;;;;;;;5066392;28;20090;-45
2022/12/09 14:30:49;;;;;;;;;;;;;;;;;;5000583;28;20056;-44
2022/12/09 14:33:35;;;;;;;280.70;117.97;;;;;;;;;;4982846;28;19925;-42
2022/12/09 14:36:04;;;;;;;219.00;86.82;;;;;;;;;;4999840;28;20101;-46
2022/12/09 14:38:49;;;;;;;214.70;87.43;;;;;;;;;;4997709;28;20788;-45